sensor_id;sensor_type;location;lat;lon;timestamp;P1;durP1;ratioP1;P2;durP2;ratioP2
20880;SDS011;10600;53.096;8.802;2022-09-01T00:00:35;3.60;;;2.13;;
20880;SDS011;10600;53.096;8.802;2022-09-01T00:01:39;3.70;;;2.00;;
20880;SDS011;10600;53.096;8.802;2022-09-01T00:02:42;2.45;;;2.15;;
20880;SDS011;10600;53.096;8.802;2022-09-01T00:03:44;5.40;;;2.20;;
20880;SDS011;10600;53.096;8.802;2022-09-01T00:04:48;2.38;;;1.80;;
20880;SDS011;10600;53.096;8.802;2022-09-01T00:05:50;3.67;;;2.20;;
20880;SDS011;10600;53.096;8.802;2022-09-01T00:06:54;3.72;;;1.83;;
20880;SDS011;10600;53.096;8.802;2022-09-01T00:07:55;7.25;;;2.40;;
20880;SDS011;10600;53.096;8.802;2022-09-01T00:08:56;4.28;;;2.05;;
20880;SDS011;10600;53.096;8.802;2022-09-01T00:09:59;5.70;;;2.30;;
20880;SDS011;10600;53.096;8.802;2022-09-01T00:11:00;3.80;;;2.35;;
20880;SDS011;10600;53.096;8.802;2022-09-01T00:12:01;5.15;;;2.65;;
20880;SDS011;10600;53.096;8.802;2022-09-01T00:13:04;4.32;;;2.30;;
20880;SDS011;10600;53.096;8.802;2022-09-01T00:14:06;4.25;;;2.13;;
20880;SDS011;10600;53.096;8.802;2022-09-01T00:15:08;6.15;;;2.60;;
20880;SDS011;10600;53.096;8.802;2022-09-01T00:16:11;3.38;;;2.20;;
20880;SDS011;10600;53.096;8.802;2022-09-01T00:17:15;3.97;;;2.58;;
20880;SDS011;10600;53.096;8.802;2022-09-01T00:18:16;2.67;;;2.10;;
20880;SDS011;10600;53.096;8.802;2022-09-01T00:19:16;3.50;;;2.30;;
20880;SDS011;10600;53.096;8.802;2022-09-01T00:20:17;5.30;;;2.72;;
20880;SDS011;10600;53.096;8.802;2022-09-01T00:21:20;2.60;;;2.40;;
20880;SDS011;10600;53.096;8.802;2022-09-01T00:22:24;4.07;;;2.50;;
20880;SDS011;10600;53.096;8.802;2022-09-01T00:23:28;2.97;;;2.17;;
20880;SDS011;10600;53.096;8.802;2022-09-01T00:24:28;6.25;;;2.30;;
20880;SDS011;10600;53.096;8.802;2022-09-01T00:25:29;6.82;;;2.63;;
20880;SDS011;10600;53.096;8.802;2022-09-01T00:26:30;3.85;;;2.83;;
20880;SDS011;10600;53.096;8.802;2022-09-01T00:27:31;3.53;;;2.42;;
20880;SDS011;10600;53.096;8.802;2022-09-01T00:28:33;6.07;;;2.53;;
20880;SDS011;10600;53.096;8.802;2022-09-01T00:29:35;5.80;;;2.50;;
20880;SDS011;10600;53.096;8.802;2022-09-01T00:30:36;4.85;;;2.78;;
20880;SDS011;10600;53.096;8.802;2022-09-01T00:31:36;3.80;;;2.40;;
20880;SDS011;10600;53.096;8.802;2022-09-01T00:32:38;2.45;;;2.25;;
20880;SDS011;10600;53.096;8.802;2022-09-01T00:33:39;3.72;;;2.67;;
20880;SDS011;10600;53.096;8.802;2022-09-01T00:34:40;3.10;;;2.53;;
20880;SDS011;10600;53.096;8.802;2022-09-01T00:35:41;3.28;;;2.47;;
20880;SDS011;10600;53.096;8.802;2022-09-01T00:36:41;3.50;;;2.17;;
20880;SDS011;10600;53.096;8.802;2022-09-01T00:37:43;6.65;;;2.53;;
20880;SDS011;10600;53.096;8.802;2022-09-01T00:38:44;2.97;;;2.35;;
20880;SDS011;10600;53.096;8.802;2022-09-01T00:39:45;3.40;;;2.45;;
20880;SDS011;10600;53.096;8.802;2022-09-01T00:40:46;2.83;;;2.30;;
20880;SDS011;10600;53.096;8.802;2022-09-01T00:41:46;5.60;;;2.22;;
20880;SDS011;10600;53.096;8.802;2022-09-01T00:42:49;3.33;;;2.15;;
20880;SDS011;10600;53.096;8.802;2022-09-01T00:44:55;3.63;;;2.60;;
20880;SDS011;10600;53.096;8.802;2022-09-01T00:45:56;4.35;;;2.75;;
20880;SDS011;10600;53.096;8.802;2022-09-01T00:46:57;3.22;;;2.40;;
20880;SDS011;10600;53.096;8.802;2022-09-01T00:47:58;2.80;;;2.40;;
20880;SDS011;10600;53.096;8.802;2022-09-01T00:49:04;3.42;;;2.35;;
20880;SDS011;10600;53.096;8.802;2022-09-01T00:50:12;2.75;;;2.30;;
20880;SDS011;10600;53.096;8.802;2022-09-01T00:51:16;5.13;;;2.60;;
20880;SDS011;10600;53.096;8.802;2022-09-01T00:53:40;4.05;;;2.40;;
20880;SDS011;10600;53.096;8.802;2022-09-01T00:54:44;2.80;;;2.00;;
20880;SDS011;10600;53.096;8.802;2022-09-01T00:55:48;4.63;;;3.00;;
20880;SDS011;10600;53.096;8.802;2022-09-01T00:56:49;4.22;;;2.30;;
20880;SDS011;10600;53.096;8.802;2022-09-01T00:57:51;3.42;;;2.30;;
20880;SDS011;10600;53.096;8.802;2022-09-01T00:58:52;4.75;;;2.50;;
20880;SDS011;10600;53.096;8.802;2022-09-01T00:59:58;4.13;;;2.60;;
20880;SDS011;10600;53.096;8.802;2022-09-01T01:01:07;2.58;;;2.30;;
20880;SDS011;10600;53.096;8.802;2022-09-01T01:02:09;3.33;;;2.40;;
20880;SDS011;10600;53.096;8.802;2022-09-01T01:03:10;3.90;;;2.22;;
20880;SDS011;10600;53.096;8.802;2022-09-01T01:04:11;4.22;;;2.20;;
20880;SDS011;10600;53.096;8.802;2022-09-01T01:05:15;2.65;;;2.30;;
20880;SDS011;10600;53.096;8.802;2022-09-01T01:06:16;3.88;;;2.60;;
20880;SDS011;10600;53.096;8.802;2022-09-01T01:07:20;2.67;;;2.47;;
20880;SDS011;10600;53.096;8.802;2022-09-01T01:08:26;3.88;;;2.70;;
20880;SDS011;10600;53.096;8.802;2022-09-01T01:09:33;3.17;;;2.60;;
20880;SDS011;10600;53.096;8.802;2022-09-01T01:10:38;3.60;;;2.53;;
20880;SDS011;10600;53.096;8.802;2022-09-01T01:11:40;3.75;;;2.42;;
20880;SDS011;10600;53.096;8.802;2022-09-01T01:12:46;3.63;;;2.75;;
20880;SDS011;10600;53.096;8.802;2022-09-01T01:13:56;4.72;;;2.70;;
20880;SDS011;10600;53.096;8.802;2022-09-01T01:15:10;6.47;;;2.28;;
20880;SDS011;10600;53.096;8.802;2022-09-01T01:16:13;2.80;;;2.17;;
20880;SDS011;10600;53.096;8.802;2022-09-01T01:17:15;4.53;;;2.40;;
20880;SDS011;10600;53.096;8.802;2022-09-01T01:18:18;2.75;;;1.98;;
20880;SDS011;10600;53.096;8.802;2022-09-01T01:19:21;2.33;;;2.13;;
20880;SDS011;10600;53.096;8.802;2022-09-01T01:20:42;3.70;;;2.05;;
20880;SDS011;10600;53.096;8.802;2022-09-01T01:22:03;2.92;;;2.30;;
20880;SDS011;10600;53.096;8.802;2022-09-01T01:24:44;3.05;;;2.17;;
20880;SDS011;10600;53.096;8.802;2022-09-01T01:25:48;2.42;;;2.13;;
20880;SDS011;10600;53.096;8.802;2022-09-01T01:26:52;3.60;;;2.45;;
20880;SDS011;10600;53.096;8.802;2022-09-01T01:28:03;3.25;;;2.22;;
20880;SDS011;10600;53.096;8.802;2022-09-01T01:29:08;4.05;;;2.47;;
20880;SDS011;10600;53.096;8.802;2022-09-01T01:30:09;7.47;;;2.22;;
20880;SDS011;10600;53.096;8.802;2022-09-01T01:31:14;4.05;;;2.65;;
20880;SDS011;10600;53.096;8.802;2022-09-01T01:32:18;3.95;;;2.40;;
20880;SDS011;10600;53.096;8.802;2022-09-01T01:33:21;3.38;;;2.20;;
20880;SDS011;10600;53.096;8.802;2022-09-01T01:34:24;4.75;;;2.33;;
20880;SDS011;10600;53.096;8.802;2022-09-01T01:35:24;4.10;;;2.17;;
20880;SDS011;10600;53.096;8.802;2022-09-01T01:36:26;4.07;;;2.28;;
20880;SDS011;10600;53.096;8.802;2022-09-01T01:37:33;2.67;;;2.20;;
20880;SDS011;10600;53.096;8.802;2022-09-01T01:38:34;3.90;;;2.50;;
20880;SDS011;10600;53.096;8.802;2022-09-01T01:39:35;4.10;;;2.38;;
20880;SDS011;10600;53.096;8.802;2022-09-01T01:40:41;4.32;;;2.20;;
20880;SDS011;10600;53.096;8.802;2022-09-01T01:41:42;3.42;;;2.40;;
20880;SDS011;10600;53.096;8.802;2022-09-01T01:42:49;2.53;;;2.00;;
20880;SDS011;10600;53.096;8.802;2022-09-01T01:43:51;4.30;;;2.33;;
20880;SDS011;10600;53.096;8.802;2022-09-01T01:44:52;3.95;;;2.35;;
20880;SDS011;10600;53.096;8.802;2022-09-01T01:45:54;3.08;;;2.08;;
20880;SDS011;10600;53.096;8.802;2022-09-01T01:47:01;2.60;;;2.40;;
20880;SDS011;10600;53.096;8.802;2022-09-01T01:48:07;5.00;;;2.78;;
20880;SDS011;10600;53.096;8.802;2022-09-01T01:49:09;3.67;;;2.47;;
20880;SDS011;10600;53.096;8.802;2022-09-01T01:50:12;3.03;;;2.35;;
20880;SDS011;10600;53.096;8.802;2022-09-01T01:51:16;2.78;;;2.40;;
20880;SDS011;10600;53.096;8.802;2022-09-01T01:52:20;3.88;;;2.20;;
20880;SDS011;10600;53.096;8.802;2022-09-01T01:53:21;7.35;;;2.50;;
20880;SDS011;10600;53.096;8.802;2022-09-01T01:54:23;3.45;;;2.75;;
20880;SDS011;10600;53.096;8.802;2022-09-01T01:55:25;3.22;;;2.35;;
20880;SDS011;10600;53.096;8.802;2022-09-01T01:56:27;5.43;;;2.53;;
20880;SDS011;10600;53.096;8.802;2022-09-01T01:57:28;3.22;;;2.50;;
20880;SDS011;10600;53.096;8.802;2022-09-01T01:58:31;2.65;;;2.40;;
20880;SDS011;10600;53.096;8.802;2022-09-01T01:59:33;3.50;;;2.30;;
20880;SDS011;10600;53.096;8.802;2022-09-01T02:00:34;2.97;;;2.33;;
20880;SDS011;10600;53.096;8.802;2022-09-01T02:01:35;3.50;;;2.50;;
20880;SDS011;10600;53.096;8.802;2022-09-01T02:02:37;3.45;;;2.60;;
20880;SDS011;10600;53.096;8.802;2022-09-01T02:03:39;2.92;;;2.60;;
20880;SDS011;10600;53.096;8.802;2022-09-01T02:04:39;3.50;;;2.40;;
20880;SDS011;10600;53.096;8.802;2022-09-01T02:05:42;4.03;;;2.53;;
20880;SDS011;10600;53.096;8.802;2022-09-01T02:06:43;4.78;;;2.38;;
20880;SDS011;10600;53.096;8.802;2022-09-01T02:07:47;5.10;;;2.17;;
20880;SDS011;10600;53.096;8.802;2022-09-01T02:08:49;4.65;;;2.95;;
20880;SDS011;10600;53.096;8.802;2022-09-01T02:09:51;3.67;;;2.60;;
20880;SDS011;10600;53.096;8.802;2022-09-01T02:10:53;3.75;;;2.63;;
20880;SDS011;10600;53.096;8.802;2022-09-01T02:11:55;3.60;;;2.15;;
20880;SDS011;10600;53.096;8.802;2022-09-01T02:12:56;3.58;;;2.25;;
20880;SDS011;10600;53.096;8.802;2022-09-01T02:14:07;2.65;;;2.45;;
20880;SDS011;10600;53.096;8.802;2022-09-01T02:15:08;3.33;;;2.92;;
20880;SDS011;10600;53.096;8.802;2022-09-01T02:16:11;2.80;;;2.50;;
20880;SDS011;10600;53.096;8.802;2022-09-01T02:17:13;3.72;;;2.83;;
20880;SDS011;10600;53.096;8.802;2022-09-01T02:18:18;4.30;;;3.10;;
20880;SDS011;10600;53.096;8.802;2022-09-01T02:19:22;2.63;;;2.40;;
20880;SDS011;10600;53.096;8.802;2022-09-01T02:20:23;3.60;;;2.80;;
20880;SDS011;10600;53.096;8.802;2022-09-01T02:21:28;2.47;;;2.28;;
20880;SDS011;10600;53.096;8.802;2022-09-01T02:22:28;3.38;;;2.30;;
20880;SDS011;10600;53.096;8.802;2022-09-01T02:23:29;3.95;;;3.03;;
20880;SDS011;10600;53.096;8.802;2022-09-01T02:24:31;4.03;;;2.70;;
20880;SDS011;10600;53.096;8.802;2022-09-01T02:25:33;3.95;;;2.50;;
20880;SDS011;10600;53.096;8.802;2022-09-01T02:26:36;3.42;;;3.10;;
20880;SDS011;10600;53.096;8.802;2022-09-01T02:27:39;6.75;;;2.67;;
20880;SDS011;10600;53.096;8.802;2022-09-01T02:28:41;4.80;;;2.85;;
20880;SDS011;10600;53.096;8.802;2022-09-01T02:29:44;4.07;;;2.80;;
20880;SDS011;10600;53.096;8.802;2022-09-01T02:30:45;4.10;;;3.00;;
20880;SDS011;10600;53.096;8.802;2022-09-01T02:31:51;4.38;;;2.60;;
20880;SDS011;10600;53.096;8.802;2022-09-01T02:32:52;3.67;;;2.70;;
20880;SDS011;10600;53.096;8.802;2022-09-01T02:33:53;4.00;;;2.90;;
20880;SDS011;10600;53.096;8.802;2022-09-01T02:34:54;3.38;;;2.88;;
20880;SDS011;10600;53.096;8.802;2022-09-01T02:36:01;5.53;;;3.03;;
20880;SDS011;10600;53.096;8.802;2022-09-01T02:37:05;4.38;;;2.97;;
20880;SDS011;10600;53.096;8.802;2022-09-01T02:38:06;5.07;;;2.97;;
20880;SDS011;10600;53.096;8.802;2022-09-01T02:39:07;5.38;;;3.15;;
20880;SDS011;10600;53.096;8.802;2022-09-01T02:40:08;4.13;;;2.83;;
20880;SDS011;10600;53.096;8.802;2022-09-01T02:41:09;3.17;;;2.83;;
20880;SDS011;10600;53.096;8.802;2022-09-01T02:42:11;4.47;;;2.83;;
20880;SDS011;10600;53.096;8.802;2022-09-01T02:43:14;3.47;;;2.90;;
20880;SDS011;10600;53.096;8.802;2022-09-01T02:44:19;3.25;;;2.83;;
20880;SDS011;10600;53.096;8.802;2022-09-01T02:45:21;6.38;;;3.28;;
20880;SDS011;10600;53.096;8.802;2022-09-01T02:46:23;5.63;;;3.20;;
20880;SDS011;10600;53.096;8.802;2022-09-01T02:47:23;3.97;;;2.85;;
20880;SDS011;10600;53.096;8.802;2022-09-01T02:48:28;3.97;;;2.97;;
20880;SDS011;10600;53.096;8.802;2022-09-01T02:49:35;4.43;;;2.67;;
20880;SDS011;10600;53.096;8.802;2022-09-01T02:50:39;3.95;;;3.03;;
20880;SDS011;10600;53.096;8.802;2022-09-01T02:51:41;3.05;;;2.80;;
20880;SDS011;10600;53.096;8.802;2022-09-01T02:52:46;6.20;;;3.08;;
20880;SDS011;10600;53.096;8.802;2022-09-01T02:53:48;2.90;;;2.60;;
20880;SDS011;10600;53.096;8.802;2022-09-01T02:54:51;4.07;;;2.92;;
20880;SDS011;10600;53.096;8.802;2022-09-01T02:55:54;3.00;;;2.70;;
20880;SDS011;10600;53.096;8.802;2022-09-01T02:56:58;6.05;;;2.92;;
20880;SDS011;10600;53.096;8.802;2022-09-01T02:57:59;3.60;;;3.05;;
20880;SDS011;10600;53.096;8.802;2022-09-01T02:59:00;7.20;;;2.72;;
20880;SDS011;10600;53.096;8.802;2022-09-01T03:00:04;3.80;;;2.95;;
20880;SDS011;10600;53.096;8.802;2022-09-01T03:01:20;4.65;;;3.10;;
20880;SDS011;10600;53.096;8.802;2022-09-01T03:02:28;3.70;;;3.10;;
20880;SDS011;10600;53.096;8.802;2022-09-01T03:03:30;3.88;;;3.17;;
20880;SDS011;10600;53.096;8.802;2022-09-01T03:04:30;3.30;;;3.00;;
20880;SDS011;10600;53.096;8.802;2022-09-01T03:05:34;4.05;;;3.65;;
20880;SDS011;10600;53.096;8.802;2022-09-01T03:06:38;3.50;;;3.20;;
20880;SDS011;10600;53.096;8.802;2022-09-01T03:07:39;4.50;;;3.38;;
20880;SDS011;10600;53.096;8.802;2022-09-01T03:08:41;4.85;;;3.10;;
20880;SDS011;10600;53.096;8.802;2022-09-01T03:09:42;5.65;;;3.20;;
20880;SDS011;10600;53.096;8.802;2022-09-01T03:10:43;6.15;;;3.45;;
20880;SDS011;10600;53.096;8.802;2022-09-01T03:11:47;4.63;;;3.25;;
20880;SDS011;10600;53.096;8.802;2022-09-01T03:12:50;6.10;;;3.17;;
20880;SDS011;10600;53.096;8.802;2022-09-01T03:13:51;3.85;;;3.20;;
20880;SDS011;10600;53.096;8.802;2022-09-01T03:14:52;4.88;;;3.63;;
20880;SDS011;10600;53.096;8.802;2022-09-01T03:15:53;4.30;;;3.75;;
20880;SDS011;10600;53.096;8.802;2022-09-01T03:16:54;3.50;;;3.20;;
20880;SDS011;10600;53.096;8.802;2022-09-01T03:17:56;3.53;;;3.22;;
20880;SDS011;10600;53.096;8.802;2022-09-01T03:18:58;4.03;;;3.50;;
20880;SDS011;10600;53.096;8.802;2022-09-01T03:20:02;4.47;;;3.80;;
20880;SDS011;10600;53.096;8.802;2022-09-01T03:21:03;3.92;;;3.60;;
20880;SDS011;10600;53.096;8.802;2022-09-01T03:22:05;5.72;;;3.80;;
20880;SDS011;10600;53.096;8.802;2022-09-01T03:23:06;4.88;;;3.72;;
20880;SDS011;10600;53.096;8.802;2022-09-01T03:24:09;5.68;;;3.83;;
20880;SDS011;10600;53.096;8.802;2022-09-01T03:25:15;5.80;;;3.75;;
20880;SDS011;10600;53.096;8.802;2022-09-01T03:26:16;4.63;;;3.95;;
20880;SDS011;10600;53.096;8.802;2022-09-01T03:27:20;5.10;;;3.33;;
20880;SDS011;10600;53.096;8.802;2022-09-01T03:28:20;4.85;;;3.63;;
20880;SDS011;10600;53.096;8.802;2022-09-01T03:29:21;4.55;;;3.67;;
20880;SDS011;10600;53.096;8.802;2022-09-01T03:30:22;5.25;;;3.35;;
20880;SDS011;10600;53.096;8.802;2022-09-01T03:31:23;4.50;;;4.10;;
20880;SDS011;10600;53.096;8.802;2022-09-01T03:32:26;6.03;;;3.65;;
20880;SDS011;10600;53.096;8.802;2022-09-01T03:33:28;4.85;;;3.90;;
20880;SDS011;10600;53.096;8.802;2022-09-01T03:34:29;6.28;;;4.20;;
20880;SDS011;10600;53.096;8.802;2022-09-01T03:35:33;5.65;;;3.75;;
20880;SDS011;10600;53.096;8.802;2022-09-01T03:36:34;4.22;;;3.50;;
20880;SDS011;10600;53.096;8.802;2022-09-01T03:37:34;3.83;;;3.50;;
20880;SDS011;10600;53.096;8.802;2022-09-01T03:38:36;6.63;;;3.92;;
20880;SDS011;10600;53.096;8.802;2022-09-01T03:39:37;5.00;;;3.97;;
20880;SDS011;10600;53.096;8.802;2022-09-01T03:40:38;4.40;;;3.97;;
20880;SDS011;10600;53.096;8.802;2022-09-01T03:41:39;4.93;;;3.85;;
20880;SDS011;10600;53.096;8.802;2022-09-01T03:42:40;4.57;;;3.85;;
20880;SDS011;10600;53.096;8.802;2022-09-01T03:43:43;5.22;;;3.45;;
20880;SDS011;10600;53.096;8.802;2022-09-01T03:44:45;4.72;;;3.47;;
20880;SDS011;10600;53.096;8.802;2022-09-01T03:45:48;5.05;;;4.28;;
20880;SDS011;10600;53.096;8.802;2022-09-01T03:46:49;4.70;;;4.13;;
20880;SDS011;10600;53.096;8.802;2022-09-01T03:47:51;4.65;;;3.83;;
20880;SDS011;10600;53.096;8.802;2022-09-01T03:48:54;5.75;;;3.88;;
20880;SDS011;10600;53.096;8.802;2022-09-01T03:49:57;4.60;;;4.00;;
20880;SDS011;10600;53.096;8.802;2022-09-01T03:50:59;4.93;;;4.15;;
20880;SDS011;10600;53.096;8.802;2022-09-01T03:52:02;4.53;;;4.10;;
20880;SDS011;10600;53.096;8.802;2022-09-01T03:53:03;4.38;;;3.78;;
20880;SDS011;10600;53.096;8.802;2022-09-01T03:54:04;5.20;;;3.97;;
20880;SDS011;10600;53.096;8.802;2022-09-01T03:55:05;4.30;;;3.88;;
20880;SDS011;10600;53.096;8.802;2022-09-01T03:56:06;4.07;;;3.65;;
20880;SDS011;10600;53.096;8.802;2022-09-01T03:57:08;5.70;;;4.20;;
20880;SDS011;10600;53.096;8.802;2022-09-01T03:58:09;4.65;;;4.13;;
20880;SDS011;10600;53.096;8.802;2022-09-01T03:59:11;4.93;;;4.05;;
20880;SDS011;10600;53.096;8.802;2022-09-01T04:00:16;4.38;;;3.97;;
20880;SDS011;10600;53.096;8.802;2022-09-01T04:01:22;5.45;;;4.25;;
20880;SDS011;10600;53.096;8.802;2022-09-01T04:02:27;4.68;;;4.10;;
20880;SDS011;10600;53.096;8.802;2022-09-01T04:03:29;6.93;;;4.43;;
20880;SDS011;10600;53.096;8.802;2022-09-01T04:04:31;5.97;;;4.18;;
20880;SDS011;10600;53.096;8.802;2022-09-01T04:05:32;5.95;;;3.75;;
20880;SDS011;10600;53.096;8.802;2022-09-01T04:06:36;7.38;;;4.60;;
20880;SDS011;10600;53.096;8.802;2022-09-01T04:07:36;5.22;;;4.10;;
20880;SDS011;10600;53.096;8.802;2022-09-01T04:08:37;9.73;;;3.95;;
20880;SDS011;10600;53.096;8.802;2022-09-01T04:09:38;4.30;;;3.80;;
20880;SDS011;10600;53.096;8.802;2022-09-01T04:10:44;6.50;;;3.90;;
20880;SDS011;10600;53.096;8.802;2022-09-01T04:11:49;6.05;;;4.32;;
20880;SDS011;10600;53.096;8.802;2022-09-01T04:12:51;5.72;;;4.43;;
20880;SDS011;10600;53.096;8.802;2022-09-01T04:13:51;4.53;;;4.10;;
20880;SDS011;10600;53.096;8.802;2022-09-01T04:14:52;6.13;;;4.10;;
20880;SDS011;10600;53.096;8.802;2022-09-01T04:15:53;7.03;;;4.30;;
20880;SDS011;10600;53.096;8.802;2022-09-01T04:16:55;5.70;;;4.40;;
20880;SDS011;10600;53.096;8.802;2022-09-01T04:18:15;5.63;;;4.32;;
20880;SDS011;10600;53.096;8.802;2022-09-01T04:19:21;5.85;;;4.82;;
20880;SDS011;10600;53.096;8.802;2022-09-01T04:20:27;5.00;;;4.50;;
20880;SDS011;10600;53.096;8.802;2022-09-01T04:21:28;6.78;;;4.82;;
20880;SDS011;10600;53.096;8.802;2022-09-01T04:22:29;7.72;;;4.95;;
20880;SDS011;10600;53.096;8.802;2022-09-01T04:23:32;6.00;;;4.50;;
20880;SDS011;10600;53.096;8.802;2022-09-01T04:24:34;5.68;;;4.55;;
20880;SDS011;10600;53.096;8.802;2022-09-01T04:25:34;6.53;;;4.65;;
20880;SDS011;10600;53.096;8.802;2022-09-01T04:26:38;5.57;;;5.05;;
20880;SDS011;10600;53.096;8.802;2022-09-01T04:27:40;5.20;;;4.45;;
20880;SDS011;10600;53.096;8.802;2022-09-01T04:28:44;6.28;;;4.70;;
20880;SDS011;10600;53.096;8.802;2022-09-01T04:29:47;5.93;;;4.80;;
20880;SDS011;10600;53.096;8.802;2022-09-01T04:30:51;5.72;;;5.13;;
20880;SDS011;10600;53.096;8.802;2022-09-01T04:32:02;7.90;;;5.15;;
20880;SDS011;10600;53.096;8.802;2022-09-01T04:33:06;6.97;;;5.00;;
20880;SDS011;10600;53.096;8.802;2022-09-01T04:34:07;9.60;;;7.15;;
20880;SDS011;10600;53.096;8.802;2022-09-01T04:35:12;14.07;;;8.88;;
20880;SDS011;10600;53.096;8.802;2022-09-01T04:36:22;7.38;;;5.85;;
20880;SDS011;10600;53.096;8.802;2022-09-01T04:37:26;13.15;;;7.97;;
20880;SDS011;10600;53.096;8.802;2022-09-01T04:38:27;9.23;;;7.03;;
20880;SDS011;10600;53.096;8.802;2022-09-01T04:39:28;5.68;;;5.10;;
20880;SDS011;10600;53.096;8.802;2022-09-01T04:40:29;8.25;;;5.80;;
20880;SDS011;10600;53.096;8.802;2022-09-01T04:41:30;7.57;;;5.30;;
20880;SDS011;10600;53.096;8.802;2022-09-01T04:42:32;8.57;;;6.10;;
20880;SDS011;10600;53.096;8.802;2022-09-01T04:43:33;6.38;;;5.10;;
20880;SDS011;10600;53.096;8.802;2022-09-01T04:44:35;6.30;;;5.70;;
20880;SDS011;10600;53.096;8.802;2022-09-01T04:45:36;8.38;;;4.93;;
20880;SDS011;10600;53.096;8.802;2022-09-01T04:46:38;7.13;;;5.32;;
20880;SDS011;10600;53.096;8.802;2022-09-01T04:47:45;6.43;;;5.40;;
20880;SDS011;10600;53.096;8.802;2022-09-01T04:48:46;8.48;;;5.18;;
20880;SDS011;10600;53.096;8.802;2022-09-01T04:49:51;6.55;;;5.28;;
20880;SDS011;10600;53.096;8.802;2022-09-01T04:50:57;8.48;;;5.57;;
20880;SDS011;10600;53.096;8.802;2022-09-01T04:51:57;7.97;;;5.25;;
20880;SDS011;10600;53.096;8.802;2022-09-01T04:52:58;5.97;;;5.45;;
20880;SDS011;10600;53.096;8.802;2022-09-01T04:54:00;6.88;;;5.55;;
20880;SDS011;10600;53.096;8.802;2022-09-01T04:55:02;8.85;;;5.60;;
20880;SDS011;10600;53.096;8.802;2022-09-01T04:56:06;10.15;;;5.38;;
20880;SDS011;10600;53.096;8.802;2022-09-01T04:57:08;7.35;;;6.22;;
20880;SDS011;10600;53.096;8.802;2022-09-01T04:58:09;9.13;;;6.05;;
20880;SDS011;10600;53.096;8.802;2022-09-01T04:59:12;7.38;;;5.40;;
20880;SDS011;10600;53.096;8.802;2022-09-01T05:00:14;8.60;;;5.70;;
20880;SDS011;10600;53.096;8.802;2022-09-01T05:01:24;6.28;;;5.60;;
20880;SDS011;10600;53.096;8.802;2022-09-01T05:02:26;14.23;;;6.03;;
20880;SDS011;10600;53.096;8.802;2022-09-01T05:03:28;8.35;;;5.90;;
20880;SDS011;10600;53.096;8.802;2022-09-01T05:04:31;8.20;;;5.80;;
20880;SDS011;10600;53.096;8.802;2022-09-01T05:05:37;7.53;;;6.00;;
20880;SDS011;10600;53.096;8.802;2022-09-01T05:06:46;8.93;;;6.43;;
20880;SDS011;10600;53.096;8.802;2022-09-01T05:07:49;8.07;;;6.18;;
20880;SDS011;10600;53.096;8.802;2022-09-01T05:08:52;9.93;;;6.78;;
20880;SDS011;10600;53.096;8.802;2022-09-01T05:09:52;8.93;;;7.10;;
20880;SDS011;10600;53.096;8.802;2022-09-01T05:10:53;8.70;;;7.03;;
20880;SDS011;10600;53.096;8.802;2022-09-01T05:11:56;7.75;;;6.95;;
20880;SDS011;10600;53.096;8.802;2022-09-01T05:12:57;7.55;;;6.65;;
20880;SDS011;10600;53.096;8.802;2022-09-01T05:13:58;8.82;;;7.05;;
20880;SDS011;10600;53.096;8.802;2022-09-01T05:14:59;8.05;;;6.82;;
20880;SDS011;10600;53.096;8.802;2022-09-01T05:16:07;7.43;;;6.72;;
20880;SDS011;10600;53.096;8.802;2022-09-01T05:17:14;9.70;;;7.38;;
20880;SDS011;10600;53.096;8.802;2022-09-01T05:18:17;8.38;;;6.30;;
20880;SDS011;10600;53.096;8.802;2022-09-01T05:19:24;8.70;;;6.85;;
20880;SDS011;10600;53.096;8.802;2022-09-01T05:20:28;8.30;;;6.70;;
20880;SDS011;10600;53.096;8.802;2022-09-01T05:21:31;8.65;;;6.63;;
20880;SDS011;10600;53.096;8.802;2022-09-01T05:22:32;6.80;;;6.20;;
20880;SDS011;10600;53.096;8.802;2022-09-01T05:23:34;9.15;;;6.40;;
20880;SDS011;10600;53.096;8.802;2022-09-01T05:24:36;8.75;;;5.97;;
20880;SDS011;10600;53.096;8.802;2022-09-01T05:25:38;9.93;;;6.55;;
20880;SDS011;10600;53.096;8.802;2022-09-01T05:26:41;9.05;;;5.90;;
20880;SDS011;10600;53.096;8.802;2022-09-01T05:27:43;9.23;;;6.75;;
20880;SDS011;10600;53.096;8.802;2022-09-01T05:28:52;8.70;;;5.90;;
20880;SDS011;10600;53.096;8.802;2022-09-01T05:29:56;6.60;;;5.63;;
20880;SDS011;10600;53.096;8.802;2022-09-01T05:30:59;9.02;;;5.80;;
20880;SDS011;10600;53.096;8.802;2022-09-01T05:32:01;10.50;;;5.80;;
20880;SDS011;10600;53.096;8.802;2022-09-01T05:33:08;8.63;;;5.47;;
20880;SDS011;10600;53.096;8.802;2022-09-01T05:34:14;6.72;;;5.38;;
20880;SDS011;10600;53.096;8.802;2022-09-01T05:35:25;9.73;;;5.85;;
20880;SDS011;10600;53.096;8.802;2022-09-01T05:36:27;7.43;;;6.18;;
20880;SDS011;10600;53.096;8.802;2022-09-01T05:37:30;7.47;;;6.15;;
20880;SDS011;10600;53.096;8.802;2022-09-01T05:38:31;7.93;;;5.78;;
20880;SDS011;10600;53.096;8.802;2022-09-01T05:39:33;6.93;;;6.22;;
20880;SDS011;10600;53.096;8.802;2022-09-01T05:40:35;8.93;;;5.80;;
20880;SDS011;10600;53.096;8.802;2022-09-01T05:41:40;7.75;;;6.70;;
20880;SDS011;10600;53.096;8.802;2022-09-01T05:42:44;8.18;;;6.45;;
20880;SDS011;10600;53.096;8.802;2022-09-01T05:43:45;6.90;;;6.20;;
20880;SDS011;10600;53.096;8.802;2022-09-01T05:44:51;8.63;;;6.15;;
20880;SDS011;10600;53.096;8.802;2022-09-01T05:45:52;7.85;;;5.57;;
20880;SDS011;10600;53.096;8.802;2022-09-01T05:46:57;7.63;;;5.65;;
20880;SDS011;10600;53.096;8.802;2022-09-01T05:47:59;8.32;;;5.90;;
20880;SDS011;10600;53.096;8.802;2022-09-01T05:48:59;9.52;;;5.38;;
20880;SDS011;10600;53.096;8.802;2022-09-01T05:50:02;8.68;;;6.07;;
20880;SDS011;10600;53.096;8.802;2022-09-01T05:51:05;8.00;;;6.38;;
20880;SDS011;10600;53.096;8.802;2022-09-01T05:52:06;8.25;;;5.70;;
20880;SDS011;10600;53.096;8.802;2022-09-01T05:53:09;7.95;;;5.43;;
20880;SDS011;10600;53.096;8.802;2022-09-01T05:54:15;6.93;;;5.70;;
20880;SDS011;10600;53.096;8.802;2022-09-01T05:55:24;7.32;;;5.65;;
20880;SDS011;10600;53.096;8.802;2022-09-01T05:56:27;9.88;;;5.28;;
20880;SDS011;10600;53.096;8.802;2022-09-01T05:57:29;8.93;;;5.45;;
20880;SDS011;10600;53.096;8.802;2022-09-01T05:58:33;9.82;;;5.63;;
20880;SDS011;10600;53.096;8.802;2022-09-01T05:59:35;7.68;;;5.55;;
20880;SDS011;10600;53.096;8.802;2022-09-01T06:00:40;5.75;;;5.10;;
20880;SDS011;10600;53.096;8.802;2022-09-01T06:01:42;7.05;;;5.65;;
20880;SDS011;10600;53.096;8.802;2022-09-01T06:02:42;5.35;;;4.75;;
20880;SDS011;10600;53.096;8.802;2022-09-01T06:03:43;6.15;;;4.85;;
20880;SDS011;10600;53.096;8.802;2022-09-01T06:04:46;5.47;;;4.70;;
20880;SDS011;10600;53.096;8.802;2022-09-01T06:05:47;9.18;;;5.40;;
20880;SDS011;10600;53.096;8.802;2022-09-01T06:06:54;8.13;;;5.13;;
20880;SDS011;10600;53.096;8.802;2022-09-01T06:07:56;8.60;;;4.40;;
20880;SDS011;10600;53.096;8.802;2022-09-01T06:08:56;5.82;;;4.50;;
20880;SDS011;10600;53.096;8.802;2022-09-01T06:09:59;6.25;;;4.35;;
20880;SDS011;10600;53.096;8.802;2022-09-01T06:10:59;6.53;;;4.13;;
20880;SDS011;10600;53.096;8.802;2022-09-01T06:12:00;6.70;;;4.70;;
20880;SDS011;10600;53.096;8.802;2022-09-01T06:13:02;6.85;;;4.38;;
20880;SDS011;10600;53.096;8.802;2022-09-01T06:14:06;5.30;;;4.00;;
20880;SDS011;10600;53.096;8.802;2022-09-01T06:15:07;5.60;;;4.28;;
20880;SDS011;10600;53.096;8.802;2022-09-01T06:16:14;7.38;;;4.53;;
20880;SDS011;10600;53.096;8.802;2022-09-01T06:17:16;6.10;;;4.00;;
20880;SDS011;10600;53.096;8.802;2022-09-01T06:18:21;5.32;;;3.83;;
20880;SDS011;10600;53.096;8.802;2022-09-01T06:19:22;4.05;;;3.58;;
20880;SDS011;10600;53.096;8.802;2022-09-01T06:20:23;6.65;;;3.88;;
20880;SDS011;10600;53.096;8.802;2022-09-01T06:21:24;4.10;;;3.30;;
20880;SDS011;10600;53.096;8.802;2022-09-01T06:22:27;5.68;;;3.80;;
20880;SDS011;10600;53.096;8.802;2022-09-01T06:23:28;5.80;;;3.45;;